createdAt,value
2022-11-26T00:02:48.394Z,7.55
2022-11-26T00:07:42.535Z,7.54
2022-11-26T00:12:35.149Z,7.53
2022-11-26T00:17:26.828Z,7.53
2022-11-26T00:22:29.025Z,7.53
2022-11-26T00:27:20.841Z,7.51
2022-11-26T00:32:17.201Z,7.50
2022-11-26T00:37:38.287Z,7.51
2022-11-26T00:42:30.100Z,7.52
2022-11-26T00:47:21.869Z,7.55
2022-11-26T00:52:35.339Z,7.58
2022-11-26T00:57:27.032Z,7.60
2022-11-26T01:02:18.747Z,7.61
2022-11-26T01:07:10.980Z,7.62
2022-11-26T01:12:02.660Z,7.59
2022-11-26T01:16:56.786Z,7.60
2022-11-26T01:21:48.500Z,7.59
2022-11-26T01:26:42.348Z,7.57
2022-11-26T01:31:34.092Z,7.57
2022-11-26T01:36:25.786Z,7.57
2022-11-26T01:41:32.441Z,7.56
2022-11-26T01:46:26.412Z,7.55
2022-11-26T01:51:26.890Z,7.55
2022-11-26T01:56:36.126Z,7.59
2022-11-26T02:01:28.172Z,7.60
2022-11-26T02:06:24.472Z,7.59
2022-11-26T02:11:19.783Z,7.58
2022-11-26T02:16:32.950Z,7.57
2022-11-26T02:21:28.039Z,7.54
2022-11-26T02:26:47.755Z,7.57
2022-11-26T02:31:45.168Z,7.58
2022-11-26T02:36:52.647Z,7.56
2022-11-26T02:41:47.904Z,7.58
2022-11-26T02:46:41.732Z,7.56
2022-11-26T02:51:35.061Z,7.55
2022-11-26T02:56:28.393Z,7.57
2022-11-26T03:01:29.519Z,7.60
2022-11-26T03:06:23.029Z,7.63
2022-11-26T03:11:14.763Z,7.68
2022-11-26T03:16:06.700Z,7.75
2022-11-26T03:20:58.417Z,7.81
2022-11-26T03:25:50.168Z,7.86
2022-11-26T03:30:41.863Z,7.93
2022-11-26T03:35:33.608Z,7.97
2022-11-26T03:40:25.403Z,7.99
2022-11-26T03:45:17.171Z,8.01
2022-11-26T03:50:09.279Z,8.08
2022-11-26T03:55:00.927Z,8.07
2022-11-26T03:59:52.600Z,8.06
2022-11-26T04:04:44.375Z,8.02
2022-11-26T04:09:36.188Z,8.00
2022-11-26T04:14:27.926Z,7.93
2022-11-26T04:19:19.724Z,7.85
2022-11-26T04:24:11.472Z,7.75
2022-11-26T04:29:03.219Z,7.65
2022-11-26T04:33:54.916Z,7.60
2022-11-26T04:38:46.613Z,7.57
2022-11-26T04:43:38.265Z,7.55
2022-11-26T04:48:30.065Z,7.53
2022-11-26T04:53:22.361Z,7.52
2022-11-26T04:58:14.170Z,7.50
2022-11-26T05:03:06.991Z,7.48
2022-11-26T05:07:58.811Z,7.45
2022-11-26T05:12:50.513Z,7.44
2022-11-26T05:17:42.228Z,7.40
2022-11-26T05:22:33.932Z,7.38
2022-11-26T05:27:25.735Z,7.38
2022-11-26T05:32:17.395Z,7.34
2022-11-26T05:37:09.293Z,7.33
2022-11-26T05:42:06.226Z,7.31
2022-11-26T05:47:00.519Z,7.28
2022-11-26T05:51:52.824Z,7.28
2022-11-26T05:56:44.651Z,7.28
2022-11-26T06:01:36.387Z,7.28
2022-11-26T06:06:28.226Z,7.26
2022-11-26T06:11:19.950Z,7.25
2022-11-26T06:16:11.792Z,7.23
2022-11-26T06:21:05.141Z,7.21
2022-11-26T06:25:56.783Z,7.17
2022-11-26T06:30:48.664Z,7.21
2022-11-26T06:35:40.295Z,7.20
2022-11-26T06:40:32.297Z,7.19
2022-11-26T06:45:24.451Z,7.20
2022-11-26T06:50:18.717Z,7.22
2022-11-26T06:55:10.465Z,7.22
2022-11-26T07:00:03.213Z,7.22
2022-11-26T07:04:54.816Z,7.22
2022-11-26T07:09:46.766Z,7.24
2022-11-26T07:14:38.608Z,7.24
2022-11-26T07:19:30.689Z,7.23
2022-11-26T07:24:22.291Z,7.22
2022-11-26T07:29:14.113Z,7.19
2022-11-26T07:34:05.842Z,7.15
2022-11-26T07:38:59.199Z,7.15
2022-11-26T07:43:51.307Z,7.15
2022-11-26T07:48:43.265Z,7.14
2022-11-26T07:53:36.369Z,7.15
2022-11-26T07:58:28.046Z,7.17
2022-11-26T08:03:19.777Z,7.17
2022-11-26T08:08:12.469Z,7.19
2022-11-26T08:13:04.743Z,7.17
2022-11-26T08:17:57.380Z,7.20
2022-11-26T08:22:49.137Z,7.19
2022-11-26T08:27:41.082Z,7.22
2022-11-26T08:32:34.294Z,7.25
2022-11-26T08:37:25.975Z,7.26
2022-11-26T08:42:18.236Z,7.31
2022-11-26T08:47:10.047Z,7.35
2022-11-26T08:52:01.828Z,7.37
2022-11-26T08:56:54.641Z,7.43
2022-11-26T09:01:46.444Z,7.46
2022-11-26T09:06:38.318Z,7.51
2022-11-26T09:11:30.127Z,7.56
2022-11-26T09:16:22.908Z,7.61
2022-11-26T09:21:14.648Z,7.66
2022-11-26T09:26:06.387Z,7.70
2022-11-26T09:30:58.792Z,7.74
2022-11-26T09:35:50.624Z,7.78
2022-11-26T09:40:55.141Z,7.83
2022-11-26T09:45:52.068Z,7.91
2022-11-26T09:50:46.511Z,7.97
2022-11-26T09:55:42.434Z,8.03
2022-11-26T10:00:39.523Z,8.10
2022-11-26T10:05:42.335Z,8.17
2022-11-26T10:10:42.965Z,8.19
2022-11-26T10:15:46.219Z,8.24
2022-11-26T10:20:55.741Z,8.31
2022-11-26T10:25:52.580Z,8.36
2022-11-26T10:30:46.183Z,8.42
2022-11-26T10:35:42.908Z,8.47
2022-11-26T10:40:34.711Z,8.52
2022-11-26T10:45:36.594Z,8.57
2022-11-26T10:55:43.434Z,8.67
2022-11-26T11:00:42.738Z,8.72
2022-11-26T11:05:35.894Z,8.77
2022-11-26T11:10:28.090Z,8.80
2022-11-26T11:15:31.588Z,8.84
2022-11-26T11:20:37.426Z,8.87
2022-11-26T11:25:32.667Z,8.91
2022-11-26T11:30:32.261Z,8.93
2022-11-26T11:35:27.044Z,8.99
2022-11-26T11:40:25.319Z,9.02
2022-11-26T11:45:24.746Z,9.05
2022-11-26T11:50:45.941Z,9.09
2022-11-26T11:56:02.889Z,9.11
2022-11-26T12:01:03.516Z,9.17
2022-11-26T12:06:07.532Z,9.18
2022-11-26T12:11:20.521Z,9.19
2022-11-26T12:16:14.656Z,9.20
2022-11-26T12:21:12.961Z,9.20
2022-11-26T12:26:22.929Z,9.26
2022-11-26T12:31:19.837Z,9.32
2022-11-26T12:36:27.079Z,9.40
2022-11-26T12:41:34.054Z,9.44
2022-11-26T12:46:43.525Z,9.46
2022-11-26T12:51:57.160Z,9.49
2022-11-26T12:57:00.751Z,9.53
2022-11-26T13:01:52.798Z,9.57
2022-11-26T13:07:22.588Z,9.61
2022-11-26T13:12:26.308Z,9.65
2022-11-26T13:17:22.639Z,9.72
2022-11-26T13:23:05.849Z,9.79
2022-11-26T13:28:11.759Z,9.83
2022-11-26T13:33:25.307Z,9.89
2022-11-26T13:38:23.064Z,9.94
2022-11-26T13:43:49.626Z,10.00
2022-11-26T13:48:50.115Z,10.02
2022-11-26T13:53:52.036Z,10.07
2022-11-26T13:58:49.235Z,10.09
2022-11-26T14:03:49.384Z,10.10
2022-11-26T14:08:45.067Z,10.10
2022-11-26T14:13:37.390Z,10.09
2022-11-26T14:18:51.932Z,10.10
2022-11-26T14:23:52.788Z,10.09
2022-11-26T14:28:44.751Z,10.07
2022-11-26T14:33:37.587Z,10.08
2022-11-26T14:38:31.669Z,10.07
2022-11-26T14:43:23.979Z,10.04
2022-11-26T14:48:23.991Z,10.06
2022-11-26T14:53:16.226Z,10.06
2022-11-26T14:58:19.187Z,10.05
2022-11-26T15:03:25.994Z,10.03
2022-11-26T15:08:24.135Z,10.00
2022-11-26T15:13:37.723Z,10.00
2022-11-26T15:18:32.011Z,9.97
2022-11-26T15:23:32.086Z,9.98
2022-11-26T15:28:24.350Z,9.97
2022-11-26T15:33:17.033Z,9.97
2022-11-26T15:38:17.331Z,9.97
2022-11-26T15:43:21.672Z,9.96
2022-11-26T15:48:50.994Z,9.98
2022-11-26T15:53:46.932Z,9.97
2022-11-26T15:58:40.926Z,9.99
2022-11-26T16:03:36.174Z,10.01
2022-11-26T16:08:30.635Z,10.00
2022-11-26T16:13:27.871Z,10.02
2022-11-26T16:18:22.875Z,10.02
2022-11-26T16:23:29.944Z,10.05
2022-11-26T16:28:21.610Z,10.01
2022-11-26T16:33:13.367Z,10.04
2022-11-26T16:38:05.199Z,10.02
2022-11-26T16:42:57.296Z,10.04
2022-11-26T16:47:53.141Z,10.00
2022-11-26T16:52:50.077Z,9.97
2022-11-26T16:57:45.543Z,9.95
2022-11-26T17:02:37.299Z,9.92
2022-11-26T17:07:33.685Z,9.95
2022-11-26T17:12:25.755Z,9.94
2022-11-26T17:17:23.743Z,9.94
2022-11-26T17:22:19.468Z,9.96
2022-11-26T17:27:17.500Z,9.97
2022-11-26T17:32:14.276Z,9.96
2022-11-26T17:37:10.151Z,9.96
2022-11-26T17:42:01.908Z,9.95
2022-11-26T17:47:15.679Z,9.96
2022-11-26T17:52:06.156Z,9.96
2022-11-26T17:56:57.900Z,9.96
2022-11-26T18:01:49.833Z,9.94
2022-11-26T18:07:09.932Z,9.93
2022-11-26T18:12:03.178Z,9.89
2022-11-26T18:16:55.375Z,9.85
2022-11-26T18:21:49.449Z,9.84
2022-11-26T18:26:41.516Z,9.80
2022-11-26T18:31:39.133Z,9.79
2022-11-26T18:36:31.245Z,9.82
2022-11-26T18:41:23.606Z,9.81
2022-11-26T18:46:17.525Z,9.82
2022-11-26T18:51:09.516Z,9.84
2022-11-26T18:56:01.789Z,9.82
2022-11-26T19:00:58.443Z,9.82
2022-11-26T19:05:51.976Z,9.81
2022-11-26T19:10:43.669Z,9.79
2022-11-26T19:15:40.548Z,9.79
2022-11-26T19:20:32.348Z,9.77
2022-11-26T19:25:24.031Z,9.76
2022-11-26T19:30:16.945Z,9.74
2022-11-26T19:35:09.656Z,9.72
2022-11-26T19:40:01.550Z,9.70
2022-11-26T19:44:53.272Z,9.71
2022-11-26T19:49:44.964Z,9.72
2022-11-26T19:54:36.627Z,9.71
2022-11-26T19:59:28.319Z,9.70
2022-11-26T20:04:20.050Z,9.72
2022-11-26T20:09:13.915Z,9.75
2022-11-26T20:14:09.395Z,9.78
2022-11-26T20:19:02.429Z,9.82
2022-11-26T20:23:57.278Z,9.85
2022-11-26T20:28:49.689Z,9.85
2022-11-26T20:33:42.335Z,9.87
2022-11-26T20:38:34.592Z,9.91
2022-11-26T20:43:26.362Z,9.93
2022-11-26T20:48:19.012Z,9.99
2022-11-26T20:53:10.569Z,9.99
2022-11-26T20:58:02.331Z,10.02
2022-11-26T21:02:54.231Z,10.08
2022-11-26T21:07:46.431Z,10.11
2022-11-26T21:12:38.506Z,10.14
2022-11-26T21:17:30.245Z,10.18
2022-11-26T21:22:22.486Z,10.21
2022-11-26T21:27:14.367Z,10.23
2022-11-26T21:32:06.081Z,10.29
2022-11-26T21:36:57.774Z,10.32
2022-11-26T21:41:49.866Z,10.33
2022-11-26T21:46:41.708Z,10.37
2022-11-26T21:51:33.384Z,10.39
2022-11-26T21:56:30.688Z,10.37
2022-11-26T22:01:26.173Z,10.32
2022-11-26T22:06:19.197Z,10.31
2022-11-26T22:11:13.436Z,10.26
2022-11-26T22:16:05.791Z,10.25
2022-11-26T22:20:57.804Z,10.21
2022-11-26T22:25:49.494Z,10.19
2022-11-26T22:30:41.247Z,10.18
2022-11-26T22:35:33.868Z,10.17
2022-11-26T22:40:25.653Z,10.17
2022-11-26T22:45:17.456Z,10.17
2022-11-26T22:50:09.537Z,10.15
2022-11-26T22:55:01.383Z,10.17
2022-11-26T22:59:53.211Z,10.18
2022-11-26T23:04:47.435Z,10.18
2022-11-26T23:09:43.787Z,10.19
2022-11-26T23:14:38.349Z,10.20
2022-11-26T23:19:30.151Z,10.19
2022-11-26T23:24:22.039Z,10.19
2022-11-26T23:29:13.871Z,10.19
2022-11-26T23:34:06.397Z,10.21
2022-11-26T23:39:00.645Z,10.22
2022-11-26T23:43:52.408Z,10.24
2022-11-26T23:48:44.970Z,10.25
2022-11-26T23:53:38.206Z,10.25
2022-11-26T23:58:30.229Z,10.26
